Joyful Fortune — VRIH7 — position and weather

sailwx.info

Track history (hours):
 
Tides and Currents Weather Stations Pressure Air Temp Water Temp Dewpoint Dewpoint Depression Visibility Wind Speed Wind Dir Waves Ship Positions

Joyful Fortune

Last reported at 2017-Aug-29 18:51 UTC. Time now 2017-Sep-24 03:16 UTC.
Position N 31°04' E 122°05'.
Warning: this ship's position is 25 days out of date.

Length 110 m; draft 7 m.

Type: Cargo ship. MMSI: 477861200.

Date/timePositionNaut miles runAvg speedWind from/ knotsBaromVisibWave heightAir tempDewpointWater temp
2017-Aug-29 18:51N 31°04' E 122°05'3 8.8
2017-Aug-29 18:30N 31°05' E 122°01'3 7.0
2017-Aug-29 18:00N 31°06' E 121°58'510.0
2017-Aug-29 17:30N 31°09' E 121°53'510.9
2017-Aug-29 17:00N 31°13' E 121°48'611.6
2017-Aug-29 16:30N 31°17' E 121°44'510.6
2017-Aug-29 16:01N 31°21' E 121°40'611.8
2017-Aug-29 15:30N 31°24' E 121°34'510.0
2017-Aug-29 15:00N 31°27' E 121°29'4 8.9
2017-Aug-29 14:31N 31°30' E 121°25'711.7
2017-Aug-29 13:55N 31°34' E 121°19'611.7
2017-Aug-29 13:26N 31°38' E 121°14'511.5
2017-Aug-29 13:00N 31°41' E 121°10'611.3
2017-Aug-29 12:30N 31°45' E 121°05'4 0.1
2017-Aug-27 23:20N 31°42' E 121°09'410.8
2017-Aug-27 22:55N 31°40' E 121°13'511.2
2017-Aug-27 22:29N 31°36' E 121°17'611.6
2017-Aug-27 21:59N 31°32' E 121°22'612.1
2017-Aug-27 21:30N 31°28' E 121°27'4 8.9
2017-Aug-27 21:00N 31°25' E 121°31'3 6.8
2017-Aug-27 20:30N 31°22' E 121°30'0 0.1
2017-Aug-27 17:34N 31°22' E 121°30'0 0.0
2017-Aug-27 09:36N 31°22' E 121°30'0 0.0
2017-Aug-27 07:30N 31°22' E 121°30'0 0.0
2017-Aug-27 05:21N 31°22' E 121°30'0 0.0
2017-Aug-27 02:45N 31°22' E 121°30'0 0.0
2017-Aug-26 22:51N 31°22' E 121°30'0 0.0
2017-Aug-26 22:29N 31°22' E 121°30'2 3.0
2017-Aug-26 21:59N 31°23' E 121°30'2 5.1
2017-Aug-26 21:30N 31°24' E 121°33'3 6.0
2017-Aug-26 21:00N 31°23' E 121°36'4 8.4
2017-Aug-26 20:30N 31°21' E 121°41'5 9.6
2017-Aug-26 20:00N 31°17' E 121°45'612.8
2017-Aug-26 19:30N 31°12' E 121°49'612.6
2017-Aug-26 19:00N 31°08' E 121°55'611.2
2017-Aug-26 18:30N 31°05' E 122°01'511.1
2017-Aug-26 18:00N 31°04' E 122°07'510.3
2017-Aug-26 17:30N 31°03' E 122°13'  
2017-Aug-23 10:42N 34°37' E 135°03'211.9
2017-Aug-23 10:30N 34°36' E 135°05'510.8
2017-Aug-23 10:00N 34°36' E 135°12'4 8.6
2017-Aug-23 09:30N 34°39' E 135°16'3 6.7
2017-Aug-23 09:00N 34°42' E 135°15'0 0.1
2017-Aug-23 08:28N 34°42' E 135°15'0 0.0
2017-Aug-23 07:52N 34°42' E 135°15'0 0.0
2017-Aug-23 07:28N 34°42' E 135°15'0 0.0
2017-Aug-23 06:52N 34°42' E 135°15'0 0.0
2017-Aug-23 06:28N 34°42' E 135°15'0 0.0
2017-Aug-23 05:58N 34°42' E 135°15'0 0.0
2017-Aug-23 05:28N 34°42' E 135°15'0 0.0
2017-Aug-23 04:52N 34°42' E 135°15'0 0.0
2017-Aug-23 04:22N 34°42' E 135°15'0 0.0
2017-Aug-23 03:58N 34°42' E 135°15'0 0.0
2017-Aug-23 03:28N 34°42' E 135°15'0 0.0
2017-Aug-23 02:58N 34°42' E 135°15'0 0.0
2017-Aug-23 02:16N 34°42' E 135°15'0 0.0
2017-Aug-23 01:52N 34°42' E 135°15'0 0.0
2017-Aug-23 01:22N 34°42' E 135°15'0 0.0
2017-Aug-23 00:58N 34°42' E 135°15'0 0.0
2017-Aug-23 00:28N 34°42' E 135°15'0 0.0
2017-Aug-22 23:58N 34°42' E 135°15'0 0.0
2017-Aug-22 23:28N 34°42' E 135°15'0 0.0
2017-Aug-22 22:52N 34°42' E 135°15'0 0.0
2017-Aug-22 22:28N 34°42' E 135°15'0 0.0
2017-Aug-22 21:58N 34°42' E 135°15'0 0.0
2017-Aug-22 21:28N 34°42' E 135°15'0 0.0
2017-Aug-22 20:58N 34°42' E 135°15'0 0.0
2017-Aug-22 20:28N 34°42' E 135°15'0 0.0
2017-Aug-22 19:58N 34°42' E 135°15'0 0.0
2017-Aug-22 19:28N 34°42' E 135°15'0 0.0
2017-Aug-22 18:58N 34°42' E 135°15'0 0.0
2017-Aug-22 18:28N 34°42' E 135°15'0 0.0
2017-Aug-22 17:52N 34°42' E 135°15'0 0.0
2017-Aug-22 17:22N 34°42' E 135°15'0 0.0
2017-Aug-22 16:52N 34°42' E 135°15'0 0.0
2017-Aug-22 16:28N 34°42' E 135°15'0 0.0
2017-Aug-22 15:58N 34°42' E 135°15'0 0.0
2017-Aug-22 15:28N 34°42' E 135°15'0 0.0
2017-Aug-22 14:52N 34°42' E 135°15'0 0.0
2017-Aug-22 14:28N 34°42' E 135°15'0 0.0
2017-Aug-22 13:58N 34°42' E 135°15'0 0.0
2017-Aug-22 13:28N 34°42' E 135°15'0 0.0
2017-Aug-22 12:58N 34°42' E 135°15'0 0.0
2017-Aug-22 12:28N 34°42' E 135°15'0 0.0
2017-Aug-22 11:58N 34°42' E 135°15'0 0.0
2017-Aug-22 11:28N 34°42' E 135°15'0 0.0
2017-Aug-22 10:58N 34°42' E 135°15'0 0.0
2017-Aug-22 10:28N 34°42' E 135°15'0 0.0
2017-Aug-22 09:58N 34°42' E 135°15'0 0.0
2017-Aug-22 09:28N 34°42' E 135°15'0 0.0
2017-Aug-22 08:58N 34°42' E 135°15'0 0.0
2017-Aug-22 08:28N 34°42' E 135°15'0 0.0
2017-Aug-22 07:58N 34°42' E 135°15'0 0.0
2017-Aug-22 07:28N 34°42' E 135°15'0 0.0
2017-Aug-22 06:52N 34°42' E 135°15'0 0.0
2017-Aug-22 06:04N 34°42' E 135°15'0 0.0
2017-Aug-22 05:58N 34°42' E 135°15'0 0.0
2017-Aug-22 05:28N 34°42' E 135°15'0 0.0
2017-Aug-22 04:52N 34°42' E 135°15'0 1.1
2017-Aug-22 04:30N 34°42' E 135°15'3 6.1
2017-Aug-22 04:00N 34°39' E 135°16'3 3.7
2017-Aug-22 03:20N 34°37' E 135°14'0 0.0
2017-Aug-22 02:50N 34°37' E 135°14'0 0.0
2017-Aug-22 02:26N 34°37' E 135°14'0 0.0
2017-Aug-22 01:50N 34°37' E 135°14'0 0.1
2017-Aug-22 01:20N 34°37' E 135°14'0 0.0
2017-Aug-22 00:50N 34°37' E 135°14'0 0.0
2017-Aug-22 00:20N 34°37' E 135°14'0 0.0
2017-Aug-21 23:56N 34°37' E 135°14'0 0.0
2017-Aug-21 23:14N 34°37' E 135°14'0 0.2
2017-Aug-21 22:56N 34°37' E 135°13'0 0.1
2017-Aug-21 22:20N 34°37' E 135°14'0 0.0
2017-Aug-21 21:56N 34°37' E 135°14'0 0.0
2017-Aug-21 21:20N 34°37' E 135°14'0 0.1
2017-Aug-21 20:38N 34°37' E 135°14'0 0.2
2017-Aug-21 20:26N 34°37' E 135°14'0 0.1
2017-Aug-21 19:50N 34°37' E 135°14'0 0.0
2017-Aug-21 19:26N 34°37' E 135°14'0 0.0
2017-Aug-21 18:56N 34°37' E 135°14'0 0.0
2017-Aug-21 18:14N 34°37' E 135°14'0 0.0
2017-Aug-21 17:56N 34°37' E 135°14'0 0.0
2017-Aug-21 17:02N 34°37' E 135°14'0 0.0
2017-Aug-21 16:56N 34°37' E 135°14'0 0.0
2017-Aug-21 16:26N 34°37' E 135°14'0 0.0
2017-Aug-21 15:56N 34°37' E 135°14'0 0.0
2017-Aug-21 15:26N 34°37' E 135°14'0 0.1
2017-Aug-21 14:56N 34°37' E 135°14'0 0.0
2017-Aug-21 14:14N 34°37' E 135°14'0 0.0
2017-Aug-21 13:56N 34°37' E 135°14'0 0.0
2017-Aug-21 13:20N 34°37' E 135°14'0 0.0
2017-Aug-21 12:56N 34°37' E 135°14'0 0.0
2017-Aug-21 12:26N 34°37' E 135°14'0 0.1
2017-Aug-21 11:56N 34°37' E 135°14'0 0.0
2017-Aug-21 11:26N 34°37' E 135°14'0 0.1
2017-Aug-21 10:56N 34°37' E 135°14'0 0.0
2017-Aug-21 10:26N 34°37' E 135°14'0 0.8
2017-Aug-21 10:00N 34°37' E 135°13'510.4
2017-Aug-21 09:30N 34°35' E 135°07'5 9.4
2017-Aug-21 09:00N 34°36' E 135°02'6 8.2
2017-Aug-21 08:20N 34°36' E 134°55'4 9.9
2017-Aug-21 07:56N 34°38' E 134°52'  
Track history (hours):
 
Tides and Currents Weather Stations Pressure Air Temp Water Temp Dewpoint Dewpoint Depression Visibility Wind Speed Wind Dir Waves Ship Positions

Joyful Fortune

Last reported at 2017-Aug-29 18:51 UTC. Time now 2017-Sep-24 03:16 UTC.
Position N 31°04' E 122°05'.
Warning: this ship's position is 25 days out of date.

Length 110 m; draft 7 m.

Type: Cargo ship. MMSI: 477861200.

Date/timePositionNaut miles runAvg speedWind from/ knotsBaromVisibWave heightAir tempDewpointWater temp
2017-Aug-29 18:51N 31°04' E 122°05'3 8.8
2017-Aug-29 18:30N 31°05' E 122°01'3 7.0
2017-Aug-29 18:00N 31°06' E 121°58'510.0
2017-Aug-29 17:30N 31°09' E 121°53'510.9
2017-Aug-29 17:00N 31°13' E 121°48'611.6
2017-Aug-29 16:30N 31°17' E 121°44'510.6
2017-Aug-29 16:01N 31°21' E 121°40'611.8
2017-Aug-29 15:30N 31°24' E 121°34'510.0
2017-Aug-29 15:00N 31°27' E 121°29'4 8.9
2017-Aug-29 14:31N 31°30' E 121°25'711.7
2017-Aug-29 13:55N 31°34' E 121°19'611.7
2017-Aug-29 13:26N 31°38' E 121°14'511.5
2017-Aug-29 13:00N 31°41' E 121°10'611.3
2017-Aug-29 12:30N 31°45' E 121°05'4 0.1
2017-Aug-27 23:20N 31°42' E 121°09'410.8
2017-Aug-27 22:55N 31°40' E 121°13'511.2
2017-Aug-27 22:29N 31°36' E 121°17'611.6
2017-Aug-27 21:59N 31°32' E 121°22'612.1
2017-Aug-27 21:30N 31°28' E 121°27'4 8.9
2017-Aug-27 21:00N 31°25' E 121°31'3 6.8
2017-Aug-27 20:30N 31°22' E 121°30'0 0.1
2017-Aug-27 17:34N 31°22' E 121°30'0 0.0
2017-Aug-27 09:36N 31°22' E 121°30'0 0.0
2017-Aug-27 07:30N 31°22' E 121°30'0 0.0
2017-Aug-27 05:21N 31°22' E 121°30'0 0.0
2017-Aug-27 02:45N 31°22' E 121°30'0 0.0
2017-Aug-26 22:51N 31°22' E 121°30'0 0.0
2017-Aug-26 22:29N 31°22' E 121°30'2 3.0
2017-Aug-26 21:59N 31°23' E 121°30'2 5.1
2017-Aug-26 21:30N 31°24' E 121°33'3 6.0
2017-Aug-26 21:00N 31°23' E 121°36'4 8.4
2017-Aug-26 20:30N 31°21' E 121°41'5 9.6
2017-Aug-26 20:00N 31°17' E 121°45'612.8
2017-Aug-26 19:30N 31°12' E 121°49'612.6
2017-Aug-26 19:00N 31°08' E 121°55'611.2
2017-Aug-26 18:30N 31°05' E 122°01'511.1
2017-Aug-26 18:00N 31°04' E 122°07'510.3
2017-Aug-26 17:30N 31°03' E 122°13'  
2017-Aug-23 10:42N 34°37' E 135°03'211.9
2017-Aug-23 10:30N 34°36' E 135°05'510.8
2017-Aug-23 10:00N 34°36' E 135°12'4 8.6
2017-Aug-23 09:30N 34°39' E 135°16'3 6.7
2017-Aug-23 09:00N 34°42' E 135°15'0 0.1
2017-Aug-23 08:28N 34°42' E 135°15'0 0.0
2017-Aug-23 07:52N 34°42' E 135°15'0 0.0
2017-Aug-23 07:28N 34°42' E 135°15'0 0.0
2017-Aug-23 06:52N 34°42' E 135°15'0 0.0
2017-Aug-23 06:28N 34°42' E 135°15'0 0.0
2017-Aug-23 05:58N 34°42' E 135°15'0 0.0
2017-Aug-23 05:28N 34°42' E 135°15'0 0.0
2017-Aug-23 04:52N 34°42' E 135°15'0 0.0
2017-Aug-23 04:22N 34°42' E 135°15'0 0.0
2017-Aug-23 03:58N 34°42' E 135°15'0 0.0
2017-Aug-23 03:28N 34°42' E 135°15'0 0.0
2017-Aug-23 02:58N 34°42' E 135°15'0 0.0
2017-Aug-23 02:16N 34°42' E 135°15'0 0.0
2017-Aug-23 01:52N 34°42' E 135°15'0 0.0
2017-Aug-23 01:22N 34°42' E 135°15'0 0.0
2017-Aug-23 00:58N 34°42' E 135°15'0 0.0
2017-Aug-23 00:28N 34°42' E 135°15'0 0.0
2017-Aug-22 23:58N 34°42' E 135°15'0 0.0
2017-Aug-22 23:28N 34°42' E 135°15'0 0.0
2017-Aug-22 22:52N 34°42' E 135°15'0 0.0
2017-Aug-22 22:28N 34°42' E 135°15'0 0.0
2017-Aug-22 21:58N 34°42' E 135°15'0 0.0
2017-Aug-22 21:28N 34°42' E 135°15'0 0.0
2017-Aug-22 20:58N 34°42' E 135°15'0 0.0
2017-Aug-22 20:28N 34°42' E 135°15'0 0.0
2017-Aug-22 19:58N 34°42' E 135°15'0 0.0
2017-Aug-22 19:28N 34°42' E 135°15'0 0.0
2017-Aug-22 18:58N 34°42' E 135°15'0 0.0
2017-Aug-22 18:28N 34°42' E 135°15'0 0.0
2017-Aug-22 17:52N 34°42' E 135°15'0 0.0
2017-Aug-22 17:22N 34°42' E 135°15'0 0.0
2017-Aug-22 16:52N 34°42' E 135°15'0 0.0
2017-Aug-22 16:28N 34°42' E 135°15'0 0.0
2017-Aug-22 15:58N 34°42' E 135°15'0 0.0
2017-Aug-22 15:28N 34°42' E 135°15'0 0.0
2017-Aug-22 14:52N 34°42' E 135°15'0 0.0
2017-Aug-22 14:28N 34°42' E 135°15'0 0.0
2017-Aug-22 13:58N 34°42' E 135°15'0 0.0
2017-Aug-22 13:28N 34°42' E 135°15'0 0.0
2017-Aug-22 12:58N 34°42' E 135°15'0 0.0
2017-Aug-22 12:28N 34°42' E 135°15'0 0.0
2017-Aug-22 11:58N 34°42' E 135°15'0 0.0
2017-Aug-22 11:28N 34°42' E 135°15'0 0.0
2017-Aug-22 10:58N 34°42' E 135°15'0 0.0
2017-Aug-22 10:28N 34°42' E 135°15'0 0.0
2017-Aug-22 09:58N 34°42' E 135°15'0 0.0
2017-Aug-22 09:28N 34°42' E 135°15'0 0.0
2017-Aug-22 08:58N 34°42' E 135°15'0 0.0
2017-Aug-22 08:28N 34°42' E 135°15'0 0.0
2017-Aug-22 07:58N 34°42' E 135°15'0 0.0
2017-Aug-22 07:28N 34°42' E 135°15'0 0.0
2017-Aug-22 06:52N 34°42' E 135°15'0 0.0
2017-Aug-22 06:04N 34°42' E 135°15'0 0.0
2017-Aug-22 05:58N 34°42' E 135°15'0 0.0
2017-Aug-22 05:28N 34°42' E 135°15'0 0.0
2017-Aug-22 04:52N 34°42' E 135°15'0 1.1
2017-Aug-22 04:30N 34°42' E 135°15'3 6.1
2017-Aug-22 04:00N 34°39' E 135°16'3 3.7
2017-Aug-22 03:20N 34°37' E 135°14'0 0.0
2017-Aug-22 02:50N 34°37' E 135°14'0 0.0
2017-Aug-22 02:26N 34°37' E 135°14'0 0.0
2017-Aug-22 01:50N 34°37' E 135°14'0 0.1
2017-Aug-22 01:20N 34°37' E 135°14'0 0.0
2017-Aug-22 00:50N 34°37' E 135°14'0 0.0
2017-Aug-22 00:20N 34°37' E 135°14'0 0.0
2017-Aug-21 23:56N 34°37' E 135°14'0 0.0
2017-Aug-21 23:14N 34°37' E 135°14'0 0.2
2017-Aug-21 22:56N 34°37' E 135°13'0 0.1
2017-Aug-21 22:20N 34°37' E 135°14'0 0.0
2017-Aug-21 21:56N 34°37' E 135°14'0 0.0
2017-Aug-21 21:20N 34°37' E 135°14'0 0.1
2017-Aug-21 20:38N 34°37' E 135°14'0 0.2
2017-Aug-21 20:26N 34°37' E 135°14'0 0.1
2017-Aug-21 19:50N 34°37' E 135°14'0 0.0
2017-Aug-21 19:26N 34°37' E 135°14'0 0.0
2017-Aug-21 18:56N 34°37' E 135°14'0 0.0
2017-Aug-21 18:14N 34°37' E 135°14'0 0.0
2017-Aug-21 17:56N 34°37' E 135°14'0 0.0
2017-Aug-21 17:02N 34°37' E 135°14'0 0.0
2017-Aug-21 16:56N 34°37' E 135°14'0 0.0
2017-Aug-21 16:26N 34°37' E 135°14'0 0.0
2017-Aug-21 15:56N 34°37' E 135°14'0 0.0
2017-Aug-21 15:26N 34°37' E 135°14'0 0.1
2017-Aug-21 14:56N 34°37' E 135°14'0 0.0
2017-Aug-21 14:14N 34°37' E 135°14'0 0.0
2017-Aug-21 13:56N 34°37' E 135°14'0 0.0
2017-Aug-21 13:20N 34°37' E 135°14'0 0.0
2017-Aug-21 12:56N 34°37' E 135°14'0 0.0
2017-Aug-21 12:26N 34°37' E 135°14'0 0.1
2017-Aug-21 11:56N 34°37' E 135°14'0 0.0
2017-Aug-21 11:26N 34°37' E 135°14'0 0.1
2017-Aug-21 10:56N 34°37' E 135°14'0 0.0
2017-Aug-21 10:26N 34°37' E 135°14'0 0.8
2017-Aug-21 10:00N 34°37' E 135°13'510.4
2017-Aug-21 09:30N 34°35' E 135°07'5 9.4
2017-Aug-21 09:00N 34°36' E 135°02'6 8.2
2017-Aug-21 08:20N 34°36' E 134°55'4 9.9
2017-Aug-21 07:56N 34°38' E 134°52'  

Dump ship's entire track history